sensor_id;sensor_type;location;lat;lon;timestamp;pressure;altitude;pressure_sealevel;temperature;humidity
74905;BME280;63465;50.862;6.220;2023-09-18T00:00:40;99084.84;;;20.90;100.00
74905;BME280;63465;50.862;6.220;2023-09-18T00:03:08;99082.34;;;20.96;100.00
74905;BME280;63465;50.862;6.220;2023-09-18T00:05:33;99077.75;;;20.89;100.00
74905;BME280;63465;50.862;6.220;2023-09-18T00:07:59;99073.38;;;20.88;100.00
74905;BME280;63465;50.862;6.220;2023-09-18T00:10:25;99071.03;;;20.93;100.00
74905;BME280;63465;50.862;6.220;2023-09-18T00:12:51;99070.69;;;20.70;100.00
74905;BME280;63465;50.862;6.220;2023-09-18T00:15:16;99055.06;;;20.73;100.00
74905;BME280;63465;50.862;6.220;2023-09-18T00:17:42;99053.84;;;20.67;100.00
74905;BME280;63465;50.862;6.220;2023-09-18T00:20:07;99055.13;;;20.81;100.00
74905;BME280;63465;50.862;6.220;2023-09-18T00:22:34;99044.41;;;20.72;100.00
74905;BME280;63465;50.862;6.220;2023-09-18T00:24:59;99036.66;;;20.69;100.00
74905;BME280;63465;50.862;6.220;2023-09-18T00:27:24;99028.72;;;20.67;100.00
74905;BME280;63465;50.862;6.220;2023-09-18T00:29:50;99031.63;;;20.56;100.00
74905;BME280;63465;50.862;6.220;2023-09-18T00:32:15;99019.00;;;20.56;100.00
74905;BME280;63465;50.862;6.220;2023-09-18T00:34:40;99020.25;;;20.44;100.00
74905;BME280;63465;50.862;6.220;2023-09-18T00:37:05;99028.94;;;20.38;100.00
74905;BME280;63465;50.862;6.220;2023-09-18T00:39:31;99031.03;;;20.44;100.00
74905;BME280;63465;50.862;6.220;2023-09-18T00:41:56;99028.34;;;20.44;100.00
74905;BME280;63465;50.862;6.220;2023-09-18T00:44:22;99023.09;;;20.42;100.00
74905;BME280;63465;50.862;6.220;2023-09-18T00:46:48;99019.94;;;20.47;100.00
74905;BME280;63465;50.862;6.220;2023-09-18T00:49:16;99008.78;;;20.42;100.00
74905;BME280;63465;50.862;6.220;2023-09-18T00:51:43;99011.31;;;20.43;100.00
74905;BME280;63465;50.862;6.220;2023-09-18T00:54:09;99024.25;;;20.40;100.00
74905;BME280;63465;50.862;6.220;2023-09-18T00:56:35;99028.34;;;20.44;100.00
74905;BME280;63465;50.862;6.220;2023-09-18T00:59:01;99034.50;;;20.54;100.00
74905;BME280;63465;50.862;6.220;2023-09-18T01:01:28;99042.06;;;20.33;100.00
74905;BME280;63465;50.862;6.220;2023-09-18T01:03:55;99029.09;;;20.18;100.00
74905;BME280;63465;50.862;6.220;2023-09-18T01:06:21;99034.97;;;20.31;100.00
74905;BME280;63465;50.862;6.220;2023-09-18T01:08:47;99026.34;;;20.28;100.00
74905;BME280;63465;50.862;6.220;2023-09-18T01:11:41;99016.88;;;20.24;100.00
74905;BME280;63465;50.862;6.220;2023-09-18T01:16:41;99011.94;;;20.19;100.00
74905;BME280;63465;50.862;6.220;2023-09-18T01:19:10;99011.56;;;19.96;100.00
74905;BME280;63465;50.862;6.220;2023-09-18T01:21:36;99000.53;;;19.61;100.00
74905;BME280;63465;50.862;6.220;2023-09-18T01:24:01;98999.78;;;19.97;100.00
74905;BME280;63465;50.862;6.220;2023-09-18T01:26:26;98995.00;;;20.09;100.00
74905;BME280;63465;50.862;6.220;2023-09-18T01:28:52;98994.88;;;19.92;100.00
74905;BME280;63465;50.862;6.220;2023-09-18T01:31:17;98989.84;;;19.80;100.00
74905;BME280;63465;50.862;6.220;2023-09-18T01:33:43;98993.19;;;20.09;100.00
74905;BME280;63465;50.862;6.220;2023-09-18T01:36:12;98980.47;;;19.84;100.00
74905;BME280;63465;50.862;6.220;2023-09-18T01:38:39;98980.69;;;19.90;100.00
74905;BME280;63465;50.862;6.220;2023-09-18T01:41:05;98984.41;;;19.89;100.00
74905;BME280;63465;50.862;6.220;2023-09-18T01:43:30;98980.69;;;19.90;100.00
74905;BME280;63465;50.862;6.220;2023-09-18T01:45:55;98978.91;;;19.81;100.00
74905;BME280;63465;50.862;6.220;2023-09-18T01:48:21;98969.88;;;19.72;100.00
74905;BME280;63465;50.862;6.220;2023-09-18T01:50:46;98968.47;;;19.96;100.00
74905;BME280;63465;50.862;6.220;2023-09-18T01:53:11;98966.53;;;19.88;100.00
74905;BME280;63465;50.862;6.220;2023-09-18T01:55:37;98964.47;;;19.72;100.00
74905;BME280;63465;50.862;6.220;2023-09-18T01:58:02;98957.47;;;19.89;100.00
74905;BME280;63465;50.862;6.220;2023-09-18T02:00:28;98968.44;;;19.78;100.00
74905;BME280;63465;50.862;6.220;2023-09-18T02:02:53;98978.00;;;19.90;100.00
74905;BME280;63465;50.862;6.220;2023-09-18T02:05:18;98974.94;;;19.85;100.00
74905;BME280;63465;50.862;6.220;2023-09-18T02:07:43;98973.84;;;19.78;100.00
74905;BME280;63465;50.862;6.220;2023-09-18T02:10:09;98968.72;;;19.85;100.00
74905;BME280;63465;50.862;6.220;2023-09-18T02:12:34;98962.22;;;19.77;100.00
74905;BME280;63465;50.862;6.220;2023-09-18T02:15:00;98970.84;;;19.99;100.00
74905;BME280;63465;50.862;6.220;2023-09-18T02:17:30;98960.63;;;20.21;100.00
74905;BME280;63465;50.862;6.220;2023-09-18T02:19:55;98944.75;;;20.62;100.00
74905;BME280;63465;50.862;6.220;2023-09-18T02:22:20;98936.28;;;20.75;100.00
74905;BME280;63465;50.862;6.220;2023-09-18T02:24:45;98921.00;;;21.18;100.00
74905;BME280;63465;50.862;6.220;2023-09-18T02:27:11;98911.59;;;21.30;100.00
74905;BME280;63465;50.862;6.220;2023-09-18T02:29:37;98904.69;;;21.36;100.00
74905;BME280;63465;50.862;6.220;2023-09-18T02:32:02;98901.16;;;21.44;100.00
74905;BME280;63465;50.862;6.220;2023-09-18T02:34:27;98896.06;;;21.32;100.00
74905;BME280;63465;50.862;6.220;2023-09-18T02:36:53;98898.28;;;21.29;100.00
74905;BME280;63465;50.862;6.220;2023-09-18T02:39:18;98900.56;;;21.15;100.00
74905;BME280;63465;50.862;6.220;2023-09-18T02:41:43;98888.31;;;21.29;100.00
74905;BME280;63465;50.862;6.220;2023-09-18T02:44:08;98879.84;;;21.16;100.00
74905;BME280;63465;50.862;6.220;2023-09-18T02:46:34;98863.47;;;21.09;100.00
74905;BME280;63465;50.862;6.220;2023-09-18T02:48:59;98853.81;;;20.98;100.00
74905;BME280;63465;50.862;6.220;2023-09-18T02:51:24;98871.25;;;20.78;100.00
74905;BME280;63465;50.862;6.220;2023-09-18T02:53:50;98878.47;;;20.69;100.00
74905;BME280;63465;50.862;6.220;2023-09-18T02:56:15;98861.84;;;20.56;100.00
74905;BME280;63465;50.862;6.220;2023-09-18T02:58:40;98843.16;;;20.62;100.00
74905;BME280;63465;50.862;6.220;2023-09-18T03:01:07;98841.81;;;20.58;100.00
74905;BME280;63465;50.862;6.220;2023-09-18T03:03:33;98850.25;;;20.63;100.00
74905;BME280;63465;50.862;6.220;2023-09-18T03:06:05;98843.47;;;20.51;100.00
74905;BME280;63465;50.862;6.220;2023-09-18T03:08:31;98853.19;;;20.44;100.00
74905;BME280;63465;50.862;6.220;2023-09-18T03:10:57;98854.50;;;20.40;100.00
74905;BME280;63465;50.862;6.220;2023-09-18T03:13:22;98852.28;;;20.35;100.00
74905;BME280;63465;50.862;6.220;2023-09-18T03:15:48;98842.41;;;20.18;100.00
74905;BME280;63465;50.862;6.220;2023-09-18T03:18:13;98829.06;;;20.08;100.00
74905;BME280;63465;50.862;6.220;2023-09-18T03:20:39;98827.16;;;20.26;100.00
74905;BME280;63465;50.862;6.220;2023-09-18T03:23:04;98820.53;;;20.21;100.00
74905;BME280;63465;50.862;6.220;2023-09-18T03:25:29;98814.09;;;20.13;100.00
74905;BME280;63465;50.862;6.220;2023-09-18T03:27:57;98801.88;;;20.27;100.00
74905;BME280;63465;50.862;6.220;2023-09-18T03:30:23;98791.41;;;20.16;100.00
74905;BME280;63465;50.862;6.220;2023-09-18T03:32:50;98789.06;;;20.21;100.00
74905;BME280;63465;50.862;6.220;2023-09-18T03:35:16;98791.41;;;20.16;100.00
74905;BME280;63465;50.862;6.220;2023-09-18T03:37:48;98807.22;;;20.19;100.00
74905;BME280;63465;50.862;6.220;2023-09-18T03:40:15;98806.88;;;20.14;100.00
74905;BME280;63465;50.862;6.220;2023-09-18T03:42:40;98805.63;;;20.35;100.00
74905;BME280;63465;50.862;6.220;2023-09-18T03:45:06;98820.66;;;20.11;100.00
74905;BME280;63465;50.862;6.220;2023-09-18T03:47:34;98816.16;;;20.20;100.00
74905;BME280;63465;50.862;6.220;2023-09-18T03:50:00;98810.13;;;20.52;100.00
74905;BME280;63465;50.862;6.220;2023-09-18T03:52:25;98820.00;;;20.43;100.00
74905;BME280;63465;50.862;6.220;2023-09-18T03:54:50;98812.88;;;20.34;100.00
74905;BME280;63465;50.862;6.220;2023-09-18T03:57:16;98819.63;;;20.38;100.00
74905;BME280;63465;50.862;6.220;2023-09-18T03:59:41;98825.09;;;20.20;100.00
74905;BME280;63465;50.862;6.220;2023-09-18T04:02:07;98822.34;;;20.12;100.00
74905;BME280;63465;50.862;6.220;2023-09-18T04:04:32;98818.16;;;20.18;100.00
74905;BME280;63465;50.862;6.220;2023-09-18T04:06:57;98812.59;;;20.11;100.00
74905;BME280;63465;50.862;6.220;2023-09-18T04:09:23;98807.03;;;20.12;100.00
74905;BME280;63465;50.862;6.220;2023-09-18T04:11:48;98810.19;;;20.08;100.00
74905;BME280;63465;50.862;6.220;2023-09-18T04:14:13;98816.00;;;20.21;100.00
74905;BME280;63465;50.862;6.220;2023-09-18T04:16:39;98805.81;;;20.07;100.00
74905;BME280;63465;50.862;6.220;2023-09-18T04:19:07;98797.41;;;20.10;100.00
74905;BME280;63465;50.862;6.220;2023-09-18T04:21:32;98789.66;;;20.07;100.00
74905;BME280;63465;50.862;6.220;2023-09-18T04:23:57;98778.22;;;20.05;100.00
74905;BME280;63465;50.862;6.220;2023-09-18T04:26:27;98780.47;;;20.18;100.00
74905;BME280;63465;50.862;6.220;2023-09-18T04:29:05;98781.53;;;19.99;100.00
74905;BME280;63465;50.862;6.220;2023-09-18T04:31:31;98783.63;;;19.87;100.00
74905;BME280;63465;50.862;6.220;2023-09-18T04:33:56;98769.50;;;19.85;100.00
74905;BME280;63465;50.862;6.220;2023-09-18T04:36:22;98777.47;;;19.94;100.00
74905;BME280;63465;50.862;6.220;2023-09-18T04:38:47;98790.00;;;19.86;100.00
74905;BME280;63465;50.862;6.220;2023-09-18T04:41:14;98780.31;;;19.75;100.00
74905;BME280;63465;50.862;6.220;2023-09-18T04:43:40;98783.44;;;19.80;100.00
74905;BME280;63465;50.862;6.220;2023-09-18T04:46:05;98776.88;;;19.83;100.00
74905;BME280;63465;50.862;6.220;2023-09-18T04:48:31;98758.09;;;19.91;100.00
74905;BME280;63465;50.862;6.220;2023-09-18T04:50:57;98766.00;;;19.74;100.00
74905;BME280;63465;50.862;6.220;2023-09-18T04:53:23;98771.78;;;19.80;100.00
74905;BME280;63465;50.862;6.220;2023-09-18T04:55:48;98761.63;;;19.91;100.00
74905;BME280;63465;50.862;6.220;2023-09-18T04:58:15;98765.16;;;19.74;100.00
74905;BME280;63465;50.862;6.220;2023-09-18T05:00:41;98751.47;;;19.85;100.00
74905;BME280;63465;50.862;6.220;2023-09-18T05:03:07;98773.50;;;19.81;100.00
74905;BME280;63465;50.862;6.220;2023-09-18T05:05:34;98795.88;;;19.81;100.00
74905;BME280;63465;50.862;6.220;2023-09-18T05:07:59;98794.50;;;19.77;100.00
74905;BME280;63465;50.862;6.220;2023-09-18T05:10:24;98781.06;;;19.77;100.00
74905;BME280;63465;50.862;6.220;2023-09-18T05:12:49;98804.66;;;19.83;100.00
74905;BME280;63465;50.862;6.220;2023-09-18T05:15:15;98804.50;;;19.85;100.00
74905;BME280;63465;50.862;6.220;2023-09-18T05:17:43;98812.31;;;19.78;100.00
74905;BME280;63465;50.862;6.220;2023-09-18T05:20:10;98811.53;;;19.86;100.00
74905;BME280;63465;50.862;6.220;2023-09-18T05:22:37;98831.88;;;19.80;100.00
74905;BME280;63465;50.862;6.220;2023-09-18T05:25:02;98854.41;;;19.79;100.00
74905;BME280;63465;50.862;6.220;2023-09-18T05:27:29;98846.03;;;19.82;100.00
74905;BME280;63465;50.862;6.220;2023-09-18T05:29:54;98851.09;;;19.85;100.00
74905;BME280;63465;50.862;6.220;2023-09-18T05:32:20;98852.09;;;19.84;100.00
74905;BME280;63465;50.862;6.220;2023-09-18T05:34:45;98842.53;;;19.72;100.00
74905;BME280;63465;50.862;6.220;2023-09-18T05:37:10;98836.41;;;19.80;100.00
74905;BME280;63465;50.862;6.220;2023-09-18T05:39:36;98838.25;;;19.79;100.00
74905;BME280;63465;50.862;6.220;2023-09-18T05:42:01;98819.44;;;19.69;100.00
74905;BME280;63465;50.862;6.220;2023-09-18T05:44:27;98819.59;;;19.68;100.00
74905;BME280;63465;50.862;6.220;2023-09-18T05:46:52;98831.91;;;19.70;100.00
74905;BME280;63465;50.862;6.220;2023-09-18T05:49:17;98826.00;;;19.67;100.00
74905;BME280;63465;50.862;6.220;2023-09-18T05:51:43;98828.91;;;19.73;100.00
74905;BME280;63465;50.862;6.220;2023-09-18T05:54:08;98830.47;;;19.76;100.00
74905;BME280;63465;50.862;6.220;2023-09-18T05:56:34;98814.94;;;19.70;100.00
74905;BME280;63465;50.862;6.220;2023-09-18T05:59:00;98825.00;;;19.68;100.00
74905;BME280;63465;50.862;6.220;2023-09-18T06:01:25;98814.72;;;19.81;100.00
74905;BME280;63465;50.862;6.220;2023-09-18T06:03:51;98830.03;;;19.81;100.00
74905;BME280;63465;50.862;6.220;2023-09-18T06:06:16;98834.13;;;19.75;100.00
74905;BME280;63465;50.862;6.220;2023-09-18T06:08:41;98840.94;;;19.79;100.00
74905;BME280;63465;50.862;6.220;2023-09-18T06:11:07;98831.88;;;19.80;100.00
74905;BME280;63465;50.862;6.220;2023-09-18T06:13:32;98837.00;;;19.73;100.00
74905;BME280;63465;50.862;6.220;2023-09-18T06:15:59;98837.81;;;19.74;100.00
74905;BME280;63465;50.862;6.220;2023-09-18T06:18:24;98852.91;;;19.67;100.00
74905;BME280;63465;50.862;6.220;2023-09-18T06:20:49;98855.69;;;19.75;100.00
74905;BME280;63465;50.862;6.220;2023-09-18T06:23:15;98853.44;;;19.70;100.00
74905;BME280;63465;50.862;6.220;2023-09-18T06:25:41;98864.50;;;19.77;100.00
74905;BME280;63465;50.862;6.220;2023-09-18T06:28:06;98856.44;;;19.67;100.00
74905;BME280;63465;50.862;6.220;2023-09-18T06:30:32;98855.16;;;19.71;100.00
74905;BME280;63465;50.862;6.220;2023-09-18T06:33:00;98862.75;;;19.76;100.00
74905;BME280;63465;50.862;6.220;2023-09-18T06:35:25;98855.31;;;19.70;100.00
74905;BME280;63465;50.862;6.220;2023-09-18T06:37:50;98855.69;;;19.75;100.00
74905;BME280;63465;50.862;6.220;2023-09-18T06:40:16;98841.84;;;19.70;100.00
74905;BME280;63465;50.862;6.220;2023-09-18T06:42:41;98870.13;;;19.74;100.00
74905;BME280;63465;50.862;6.220;2023-09-18T06:45:07;98874.50;;;19.75;100.00
74905;BME280;63465;50.862;6.220;2023-09-18T06:47:33;98872.97;;;19.72;100.00
74905;BME280;63465;50.862;6.220;2023-09-18T06:49:59;98866.75;;;19.72;100.00
74905;BME280;63465;50.862;6.220;2023-09-18T06:52:25;98850.59;;;19.72;100.00
74905;BME280;63465;50.862;6.220;2023-09-18T06:54:52;98862.75;;;19.76;100.00
74905;BME280;63465;50.862;6.220;2023-09-18T06:57:17;98872.97;;;19.72;100.00
74905;BME280;63465;50.862;6.220;2023-09-18T06:59:42;98861.81;;;19.77;100.00
74905;BME280;63465;50.862;6.220;2023-09-18T07:02:08;98861.94;;;19.75;100.00
74905;BME280;63465;50.862;6.220;2023-09-18T07:04:33;98884.59;;;19.73;100.00
74905;BME280;63465;50.862;6.220;2023-09-18T07:06:58;98902.88;;;19.69;100.00
74905;BME280;63465;50.862;6.220;2023-09-18T07:09:24;98912.34;;;19.73;100.00
74905;BME280;63465;50.862;6.220;2023-09-18T07:11:49;98912.97;;;19.67;100.00
74905;BME280;63465;50.862;6.220;2023-09-18T07:14:15;98894.81;;;19.69;100.00
74905;BME280;63465;50.862;6.220;2023-09-18T07:16:41;98908.25;;;19.69;100.00
74905;BME280;63465;50.862;6.220;2023-09-18T07:19:06;98923.88;;;19.66;100.00
74905;BME280;63465;50.862;6.220;2023-09-18T07:21:32;98893.97;;;19.69;100.00
74905;BME280;63465;50.862;6.220;2023-09-18T07:23:59;98892.56;;;19.65;100.00
74905;BME280;63465;50.862;6.220;2023-09-18T07:26:25;98897.66;;;19.68;100.00
74905;BME280;63465;50.862;6.220;2023-09-18T07:28:50;98909.59;;;19.65;100.00
74905;BME280;63465;50.862;6.220;2023-09-18T07:31:15;98920.06;;;19.68;100.00
74905;BME280;63465;50.862;6.220;2023-09-18T07:33:41;98928.28;;;19.67;100.00
74905;BME280;63465;50.862;6.220;2023-09-18T07:36:07;98927.41;;;19.66;100.00
74905;BME280;63465;50.862;6.220;2023-09-18T07:38:32;98922.19;;;19.65;100.00
74905;BME280;63465;50.862;6.220;2023-09-18T07:40:58;98936.34;;;19.67;100.00
74905;BME280;63465;50.862;6.220;2023-09-18T07:43:26;98929.66;;;19.71;100.00
74905;BME280;63465;50.862;6.220;2023-09-18T07:45:53;98897.50;;;19.69;100.00
74905;BME280;63465;50.862;6.220;2023-09-18T07:48:18;98926.09;;;19.80;100.00
74905;BME280;63465;50.862;6.220;2023-09-18T07:50:45;98920.59;;;19.72;100.00
74905;BME280;63465;50.862;6.220;2023-09-18T07:53:10;98924.81;;;19.74;100.00
74905;BME280;63465;50.862;6.220;2023-09-18T07:55:36;98920.00;;;19.78;100.00
74905;BME280;63465;50.862;6.220;2023-09-18T07:58:01;98944.22;;;19.78;100.00
74905;BME280;63465;50.862;6.220;2023-09-18T08:00:26;98957.31;;;19.91;100.00
74905;BME280;63465;50.862;6.220;2023-09-18T08:02:54;98945.78;;;19.99;100.00
74905;BME280;63465;50.862;6.220;2023-09-18T08:05:24;98962.84;;;20.07;100.00
74905;BME280;63465;50.862;6.220;2023-09-18T08:07:52;98948.69;;;20.05;100.00
74905;BME280;63465;50.862;6.220;2023-09-18T08:10:19;98972.47;;;20.10;100.00
74905;BME280;63465;50.862;6.220;2023-09-18T08:12:44;98974.84;;;20.13;100.00
74905;BME280;63465;50.862;6.220;2023-09-18T08:15:10;98977.41;;;20.14;100.00
74905;BME280;63465;50.862;6.220;2023-09-18T08:17:36;98971.53;;;20.19;100.00
74905;BME280;63465;50.862;6.220;2023-09-18T08:20:02;98971.47;;;20.11;100.00
74905;BME280;63465;50.862;6.220;2023-09-18T08:22:32;98989.16;;;20.13;100.00
74905;BME280;63465;50.862;6.220;2023-09-18T08:24:57;98970.97;;;20.34;100.00
74905;BME280;63465;50.862;6.220;2023-09-18T08:27:24;98972.94;;;20.23;100.00
74905;BME280;63465;50.862;6.220;2023-09-18T08:29:49;98971.91;;;20.24;100.00
74905;BME280;63465;50.862;6.220;2023-09-18T08:32:14;98964.84;;;20.23;100.00
74905;BME280;63465;50.862;6.220;2023-09-18T08:34:40;98964.28;;;20.20;100.00
74905;BME280;63465;50.862;6.220;2023-09-18T08:37:05;98966.06;;;20.29;100.00
74905;BME280;63465;50.862;6.220;2023-09-18T08:39:30;98978.22;;;20.33;100.00
74905;BME280;63465;50.862;6.220;2023-09-18T08:42:03;98979.50;;;20.47;100.00
74905;BME280;63465;50.862;6.220;2023-09-18T08:44:29;98990.53;;;20.54;100.00
74905;BME280;63465;50.862;6.220;2023-09-18T08:46:55;98970.91;;;20.43;100.00
74905;BME280;63465;50.862;6.220;2023-09-18T08:49:24;98980.06;;;20.51;100.00
74905;BME280;63465;50.862;6.220;2023-09-18T08:51:51;98983.53;;;20.43;100.00
74905;BME280;63465;50.862;6.220;2023-09-18T08:54:18;98976.59;;;20.40;100.00
74905;BME280;63465;50.862;6.220;2023-09-18T08:56:44;98975.19;;;20.54;100.00
74905;BME280;63465;50.862;6.220;2023-09-18T08:59:10;98987.28;;;20.50;100.00
74905;BME280;63465;50.862;6.220;2023-09-18T09:01:37;98979.97;;;20.60;100.00
74905;BME280;63465;50.862;6.220;2023-09-18T09:04:02;98958.28;;;20.44;100.00
74905;BME280;63465;50.862;6.220;2023-09-18T09:06:29;98966.13;;;20.55;100.00
74905;BME280;63465;50.862;6.220;2023-09-18T09:08:55;98963.09;;;20.58;100.00
74905;BME280;63465;50.862;6.220;2023-09-18T09:11:20;98951.63;;;20.56;100.00
74905;BME280;63465;50.862;6.220;2023-09-18T09:13:46;98965.16;;;20.64;100.00
74905;BME280;63465;50.862;6.220;2023-09-18T09:16:12;98977.34;;;20.69;100.00
74905;BME280;63465;50.862;6.220;2023-09-18T09:18:50;98974.84;;;21.36;100.00
74905;BME280;63465;50.862;6.220;2023-09-18T09:21:16;98961.94;;;21.56;100.00
74905;BME280;63465;50.862;6.220;2023-09-18T09:23:49;98984.13;;;21.33;100.00
74905;BME280;63465;50.862;6.220;2023-09-18T09:26:18;98978.31;;;21.20;100.00
74905;BME280;63465;50.862;6.220;2023-09-18T09:28:44;98977.41;;;21.03;100.00
74905;BME280;63465;50.862;6.220;2023-09-18T09:31:10;98969.28;;;21.72;100.00
74905;BME280;63465;50.862;6.220;2023-09-18T09:33:36;98969.81;;;21.84;100.00
74905;BME280;63465;50.862;6.220;2023-09-18T09:36:04;98975.00;;;21.77;100.00
74905;BME280;63465;50.862;6.220;2023-09-18T09:38:31;98966.63;;;22.30;100.00
74905;BME280;63465;50.862;6.220;2023-09-18T09:40:57;98950.25;;;22.06;100.00
74905;BME280;63465;50.862;6.220;2023-09-18T09:43:25;98942.63;;;23.40;100.00
74905;BME280;63465;50.862;6.220;2023-09-18T09:45:56;98923.19;;;23.60;100.00
74905;BME280;63465;50.862;6.220;2023-09-18T09:48:23;98935.38;;;23.64;100.00
74905;BME280;63465;50.862;6.220;2023-09-18T09:50:49;98927.41;;;23.71;100.00
74905;BME280;63465;50.862;6.220;2023-09-18T09:53:16;98923.38;;;23.27;100.00
74905;BME280;63465;50.862;6.220;2023-09-18T09:55:41;98923.28;;;24.06;100.00
74905;BME280;63465;50.862;6.220;2023-09-18T09:58:08;98940.09;;;24.01;100.00
74905;BME280;63465;50.862;6.220;2023-09-18T10:03:15;98928.72;;;24.21;100.00
74905;BME280;63465;50.862;6.220;2023-09-18T10:05:44;98926.69;;;24.23;100.00
74905;BME280;63465;50.862;6.220;2023-09-18T10:08:12;98921.09;;;24.25;100.00
74905;BME280;63465;50.862;6.220;2023-09-18T10:10:39;98928.09;;;25.46;100.00
74905;BME280;63465;50.862;6.220;2023-09-18T10:13:09;98923.75;;;24.86;100.00
74905;BME280;63465;50.862;6.220;2023-09-18T10:15:36;98922.31;;;24.60;100.00
74905;BME280;63465;50.862;6.220;2023-09-18T10:18:05;98914.97;;;24.08;100.00
74905;BME280;63465;50.862;6.220;2023-09-18T10:20:37;98918.31;;;24.71;100.00
74905;BME280;63465;50.862;6.220;2023-09-18T10:23:02;98924.19;;;25.34;100.00
74905;BME280;63465;50.862;6.220;2023-09-18T10:25:31;98927.66;;;24.83;100.00
74905;BME280;63465;50.862;6.220;2023-09-18T10:27:57;98928.59;;;25.20;100.00
74905;BME280;63465;50.862;6.220;2023-09-18T10:30:27;98931.59;;;24.81;100.00
74905;BME280;63465;50.862;6.220;2023-09-18T10:32:52;98932.72;;;25.16;100.00
74905;BME280;63465;50.862;6.220;2023-09-18T10:35:18;98931.22;;;24.99;100.00
74905;BME280;63465;50.862;6.220;2023-09-18T10:37:45;98933.06;;;24.30;100.00
74905;BME280;63465;50.862;6.220;2023-09-18T10:40:12;98925.81;;;24.46;100.00
74905;BME280;63465;50.862;6.220;2023-09-18T10:42:39;98918.22;;;24.64;100.00
74905;BME280;63465;50.862;6.220;2023-09-18T10:45:06;98925.13;;;25.26;100.00
74905;BME280;63465;50.862;6.220;2023-09-18T10:47:37;98930.56;;;24.06;100.00
74905;BME280;63465;50.862;6.220;2023-09-18T10:50:03;98944.03;;;23.59;100.00
74905;BME280;63465;50.862;6.220;2023-09-18T10:52:30;98937.16;;;23.48;100.00
74905;BME280;63465;50.862;6.220;2023-09-18T10:54:55;98940.78;;;23.32;100.00
74905;BME280;63465;50.862;6.220;2023-09-18T10:57:21;98940.63;;;24.35;100.00
74905;BME280;63465;50.862;6.220;2023-09-18T10:59:46;98931.69;;;24.72;100.00
74905;BME280;63465;50.862;6.220;2023-09-18T11:02:16;98932.31;;;25.49;100.00
74905;BME280;63465;50.862;6.220;2023-09-18T11:04:44;98935.13;;;24.66;100.00
74905;BME280;63465;50.862;6.220;2023-09-18T11:07:19;98933.69;;;25.60;100.00
74905;BME280;63465;50.862;6.220;2023-09-18T11:09:45;98928.59;;;25.50;100.00
74905;BME280;63465;50.862;6.220;2023-09-18T11:12:13;98922.25;;;26.73;100.00
74905;BME280;63465;50.862;6.220;2023-09-18T11:17:34;98932.34;;;25.19;100.00
74905;BME280;63465;50.862;6.220;2023-09-18T11:20:07;98921.19;;;26.45;100.00
74905;BME280;63465;50.862;6.220;2023-09-18T11:22:38;98921.38;;;25.13;100.00
74905;BME280;63465;50.862;6.220;2023-09-18T11:25:35;98937.00;;;25.40;100.00
74905;BME280;63465;50.862;6.220;2023-09-18T11:28:02;98923.53;;;24.57;100.00
74905;BME280;63465;50.862;6.220;2023-09-18T11:30:28;98931.41;;;24.67;100.00
74905;BME280;63465;50.862;6.220;2023-09-18T11:32:55;98930.88;;;24.49;100.00
74905;BME280;63465;50.862;6.220;2023-09-18T11:35:21;98916.25;;;24.73;100.00
74905;BME280;63465;50.862;6.220;2023-09-18T11:37:47;98926.00;;;24.44;100.00
74905;BME280;63465;50.862;6.220;2023-09-18T11:40:29;98925.84;;;25.87;100.00
74905;BME280;63465;50.862;6.220;2023-09-18T11:43:25;98931.69;;;24.11;100.00
74905;BME280;63465;50.862;6.220;2023-09-18T11:45:57;98927.25;;;24.18;100.00
74905;BME280;63465;50.862;6.220;2023-09-18T11:48:24;98924.56;;;23.95;100.00
74905;BME280;63465;50.862;6.220;2023-09-18T11:50:56;98921.88;;;24.10;100.00
74905;BME280;63465;50.862;6.220;2023-09-18T11:53:24;98911.28;;;25.21;100.00
74905;BME280;63465;50.862;6.220;2023-09-18T11:55:50;98895.28;;;24.29;100.00
74905;BME280;63465;50.862;6.220;2023-09-18T11:58:15;98906.50;;;23.88;100.00
74905;BME280;63465;50.862;6.220;2023-09-18T12:00:41;98904.16;;;25.35;100.00
74905;BME280;63465;50.862;6.220;2023-09-18T12:03:18;98911.97;;;24.40;100.00
74905;BME280;63465;50.862;6.220;2023-09-18T12:05:58;98893.19;;;25.43;100.00
74905;BME280;63465;50.862;6.220;2023-09-18T12:08:25;98884.72;;;26.40;100.00
74905;BME280;63465;50.862;6.220;2023-09-18T12:10:53;98901.44;;;23.76;100.00
74905;BME280;63465;50.862;6.220;2023-09-18T12:13:18;98912.16;;;23.69;100.00
74905;BME280;63465;50.862;6.220;2023-09-18T12:15:44;98901.66;;;25.04;100.00
74905;BME280;63465;50.862;6.220;2023-09-18T12:18:10;98906.16;;;24.06;100.00
74905;BME280;63465;50.862;6.220;2023-09-18T12:20:45;98896.13;;;23.60;100.00
74905;BME280;63465;50.862;6.220;2023-09-18T12:23:10;98909.44;;;23.69;100.00
74905;BME280;63465;50.862;6.220;2023-09-18T12:25:35;98902.47;;;24.21;100.00
74905;BME280;63465;50.862;6.220;2023-09-18T12:28:01;98899.06;;;24.04;100.00
74905;BME280;63465;50.862;6.220;2023-09-18T12:30:26;98898.91;;;23.75;100.00
74905;BME280;63465;50.862;6.220;2023-09-18T12:32:52;98903.44;;;23.82;100.00
74905;BME280;63465;50.862;6.220;2023-09-18T12:35:23;98909.94;;;24.19;100.00
74905;BME280;63465;50.862;6.220;2023-09-18T12:37:50;98904.00;;;24.39;100.00
74905;BME280;63465;50.862;6.220;2023-09-18T12:40:23;98898.91;;;24.21;100.00
74905;BME280;63465;50.862;6.220;2023-09-18T12:42:49;98894.66;;;23.80;100.00
74905;BME280;63465;50.862;6.220;2023-09-18T12:45:15;98886.63;;;23.95;100.00
74905;BME280;63465;50.862;6.220;2023-09-18T12:47:40;98895.47;;;23.81;100.00
74905;BME280;63465;50.862;6.220;2023-09-18T12:50:07;98902.34;;;23.68;100.00
74905;BME280;63465;50.862;6.220;2023-09-18T12:52:32;98905.56;;;23.72;100.00
74905;BME280;63465;50.862;6.220;2023-09-18T12:54:58;98896.91;;;23.68;100.00